createdAt,value
2023-01-19T02:32:33.097Z,11.63
2023-01-19T02:34:59.743Z,15.20
2023-01-19T02:37:30.162Z,14.07
2023-01-19T02:40:01.816Z,11.55
2023-01-19T02:42:33.944Z,12.05
2023-01-19T02:45:06.563Z,13.48
2023-01-19T02:47:59.160Z,12.18
2023-01-19T02:50:49.218Z,11.30
2023-01-19T02:53:37.554Z,11.38
2023-01-19T02:56:44.338Z,9.75
2023-01-19T02:59:16.715Z,11.65
2023-01-19T03:02:20.835Z,10.68
2023-01-19T03:05:23.893Z,11.35
2023-01-19T03:08:08.642Z,11.23
2023-01-19T03:11:00.545Z,11.15
2023-01-19T03:13:39.498Z,10.25
2023-01-19T03:16:27.476Z,11.50
2023-01-19T03:19:37.576Z,13.32
2023-01-19T03:22:10.929Z,12.57
2023-01-19T03:24:43.268Z,10.13
2023-01-19T03:27:14.999Z,12.40
2023-01-19T03:29:48.024Z,12.20
2023-01-19T03:32:17.757Z,10.10
2023-01-19T03:34:48.694Z,10.35
2023-01-19T03:37:16.896Z,9.82
2023-01-19T03:39:44.146Z,10.75
2023-01-19T03:42:16.252Z,13.27
2023-01-19T03:44:45.499Z,10.68
2023-01-19T03:47:14.635Z,9.90
2023-01-19T03:49:45.187Z,9.68
2023-01-19T03:52:12.844Z,10.27
2023-01-19T03:54:40.891Z,8.43
2023-01-19T03:57:07.548Z,9.38
2023-01-19T03:59:34.610Z,9.77
2023-01-19T04:02:01.187Z,8.95
2023-01-19T04:04:27.948Z,9.02
2023-01-19T04:06:54.468Z,12.00
2023-01-19T04:09:21.024Z,10.32
2023-01-19T04:11:47.574Z,8.98
2023-01-19T04:14:14.126Z,9.70
2023-01-19T04:16:40.681Z,10.25
2023-01-19T04:19:07.229Z,7.75
2023-01-19T04:21:33.761Z,8.18
2023-01-19T04:24:01.065Z,9.30
2023-01-19T04:26:27.724Z,8.70
2023-01-19T04:28:54.274Z,8.10
2023-01-19T04:31:21.036Z,8.13
2023-01-19T04:33:47.717Z,8.75
2023-01-19T04:36:14.322Z,9.10
2023-01-19T04:38:40.920Z,9.35
2023-01-19T04:41:07.567Z,9.68
2023-01-19T04:43:34.102Z,8.52
2023-01-19T04:46:00.801Z,11.77
2023-01-19T04:48:27.465Z,10.35
2023-01-19T04:50:54.007Z,8.73
2023-01-19T04:53:20.567Z,10.13
2023-01-19T04:55:47.780Z,10.40
2023-01-19T04:58:14.340Z,11.02
2023-01-19T05:00:40.926Z,11.35
2023-01-19T05:03:07.579Z,12.40
2023-01-19T05:05:34.452Z,11.07
2023-01-19T05:08:01.034Z,10.52
2023-01-19T05:10:27.647Z,11.80
2023-01-19T05:12:54.286Z,9.90
2023-01-19T05:15:20.864Z,12.73
2023-01-19T05:17:47.989Z,12.40
2023-01-19T05:20:16.333Z,12.27
2023-01-19T05:22:43.740Z,11.68
2023-01-19T05:25:10.393Z,9.98
2023-01-19T05:27:37.351Z,11.93
2023-01-19T05:30:05.483Z,10.10
2023-01-19T05:32:32.070Z,12.45
2023-01-19T05:34:58.742Z,13.45
2023-01-19T05:37:25.410Z,11.48
2023-01-19T05:39:52.256Z,9.80
2023-01-19T05:42:18.844Z,13.00
2023-01-19T05:44:45.363Z,13.73
2023-01-19T05:47:12.140Z,13.00
2023-01-19T05:49:38.712Z,12.77
2023-01-19T05:52:05.270Z,14.55
2023-01-19T05:54:32.158Z,11.85
2023-01-19T05:56:58.762Z,10.68
2023-01-19T05:59:25.490Z,11.18
2023-01-19T06:01:52.923Z,11.50
2023-01-19T06:04:20.466Z,10.63
2023-01-19T06:06:50.461Z,11.63
2023-01-19T06:09:17.662Z,13.18
2023-01-19T06:11:45.227Z,12.43
2023-01-19T06:14:12.307Z,16.55
2023-01-19T06:16:39.117Z,14.00
2023-01-19T06:19:05.924Z,13.52
2023-01-19T06:21:32.645Z,14.75
2023-01-19T06:23:59.204Z,16.58
2023-01-19T06:26:26.325Z,14.38
2023-01-19T06:28:53.049Z,16.33
2023-01-19T06:31:19.774Z,14.13
2023-01-19T06:33:46.464Z,14.90
2023-01-19T06:36:13.029Z,14.57
2023-01-19T06:38:39.854Z,13.07
2023-01-19T06:41:06.418Z,14.57
2023-01-19T06:43:32.928Z,15.35
2023-01-19T06:46:00.754Z,13.82
2023-01-19T06:48:27.564Z,18.80
2023-01-19T06:50:54.160Z,15.60
2023-01-19T06:53:22.284Z,14.57
2023-01-19T06:55:48.912Z,16.75
2023-01-19T06:58:15.653Z,13.25
2023-01-19T07:00:43.132Z,15.00
2023-01-19T07:03:19.532Z,13.27
2023-01-19T07:05:46.297Z,15.48
2023-01-19T07:08:12.929Z,18.40
2023-01-19T07:11:25.463Z,18.58
2023-01-19T07:13:25.991Z,17.77
2023-01-19T07:15:52.858Z,16.42
2023-01-19T07:18:19.438Z,16.45
2023-01-19T07:20:46.962Z,16.25
2023-01-19T07:23:13.551Z,20.20
2023-01-19T07:25:40.110Z,17.92
2023-01-19T07:28:06.703Z,17.65
2023-01-19T07:30:33.404Z,16.35
2023-01-19T07:33:00.515Z,15.75
2023-01-19T07:35:27.447Z,18.70
2023-01-19T07:37:54.133Z,17.15
2023-01-19T07:40:22.171Z,18.00
2023-01-19T07:42:52.022Z,18.00
2023-01-19T07:45:20.828Z,17.08
2023-01-19T07:47:55.052Z,16.90
2023-01-19T07:50:24.509Z,18.45
2023-01-19T07:52:53.471Z,15.93
2023-01-19T07:55:21.150Z,14.75
2023-01-19T07:57:51.496Z,15.02
2023-01-19T08:00:24.657Z,15.90
2023-01-19T08:02:52.092Z,15.63
2023-01-19T08:05:19.601Z,13.68
2023-01-19T08:07:47.276Z,13.70
2023-01-19T08:10:16.671Z,12.57
2023-01-19T08:12:43.510Z,13.13
2023-01-19T08:15:10.898Z,14.57
2023-01-19T08:17:37.738Z,15.35
2023-01-19T08:20:04.819Z,11.50
2023-01-19T08:22:31.425Z,13.07
2023-01-19T08:24:57.965Z,13.25
2023-01-19T08:27:24.664Z,13.63
2023-01-19T08:29:51.256Z,9.98
2023-01-19T08:32:17.903Z,12.30
2023-01-19T08:34:44.449Z,15.40
2023-01-19T08:37:11.222Z,15.85
2023-01-19T08:39:37.771Z,11.93
2023-01-19T08:42:05.353Z,14.20
2023-01-19T08:44:31.950Z,16.08
2023-01-19T08:46:59.981Z,12.20
2023-01-19T08:49:26.529Z,13.98
2023-01-19T08:51:53.288Z,14.30
2023-01-19T08:54:21.691Z,12.43
2023-01-19T08:56:48.299Z,9.45
2023-01-19T08:59:14.891Z,8.65
2023-01-19T09:01:41.663Z,9.52
2023-01-19T09:04:08.326Z,9.20
2023-01-19T09:06:34.925Z,9.48
2023-01-19T09:09:01.587Z,9.90
2023-01-19T09:11:28.181Z,9.95
2023-01-19T09:13:54.877Z,7.15
2023-01-19T09:16:21.520Z,7.63
2023-01-19T09:18:48.093Z,8.27
2023-01-19T09:21:15.271Z,27.40
2023-01-19T09:23:41.887Z,26.90
2023-01-19T09:26:08.547Z,20.45
2023-01-19T09:28:35.401Z,11.75
2023-01-19T09:31:07.180Z,22.42
2023-01-19T09:33:34.669Z,11.07
2023-01-19T09:36:02.221Z,16.95
2023-01-19T09:38:32.613Z,22.77
2023-01-19T09:41:00.602Z,14.10
2023-01-19T09:43:37.014Z,12.35
2023-01-19T09:46:18.088Z,37.30
2023-01-19T09:48:56.710Z,14.45
2023-01-19T09:51:24.824Z,8.80
2023-01-19T09:54:14.169Z,13.50
2023-01-19T09:56:42.353Z,16.52
2023-01-19T09:59:26.710Z,18.42
2023-01-19T10:02:18.603Z,64.38
2023-01-19T10:19:29.034Z,17.95
2023-01-19T10:21:59.699Z,15.10
2023-01-19T10:24:38.574Z,11.90
2023-01-19T10:27:15.048Z,10.77
2023-01-19T10:29:42.211Z,11.07
2023-01-19T10:32:12.562Z,8.73
2023-01-19T10:34:39.558Z,8.93
2023-01-19T10:37:21.600Z,11.88
2023-01-19T10:39:54.626Z,10.68
2023-01-19T10:42:21.182Z,11.30
2023-01-19T10:44:49.678Z,10.65
2023-01-19T10:47:18.456Z,9.65
2023-01-19T10:49:46.235Z,9.50
2023-01-19T10:52:33.172Z,10.00
2023-01-19T10:55:02.906Z,9.38
2023-01-19T10:57:34.506Z,9.00
2023-01-19T11:00:01.134Z,9.10
2023-01-19T11:02:30.154Z,9.77
2023-01-19T11:04:59.393Z,8.70
2023-01-19T11:07:25.863Z,10.27
2023-01-19T11:10:11.100Z,10.43
2023-01-19T11:13:12.494Z,11.55
2023-01-19T11:15:53.293Z,8.15
2023-01-19T11:18:35.543Z,11.80
2023-01-19T11:21:09.391Z,9.52
2023-01-19T11:23:42.917Z,11.60
2023-01-19T11:26:26.470Z,11.85
2023-01-19T11:28:56.032Z,11.23
2023-01-19T11:31:28.705Z,11.25
2023-01-19T11:34:16.255Z,11.15
2023-01-19T11:36:57.511Z,11.93
2023-01-19T11:39:28.126Z,12.43
2023-01-19T11:42:00.987Z,10.77
2023-01-19T11:44:52.383Z,10.55
2023-01-19T11:47:25.850Z,9.68
2023-01-19T11:49:58.494Z,12.10
2023-01-19T11:52:37.327Z,11.65
2023-01-19T11:55:29.185Z,13.88
2023-01-19T11:57:56.140Z,12.15
2023-01-19T12:00:36.109Z,11.30
2023-01-19T12:03:20.932Z,14.77
2023-01-19T12:05:51.982Z,14.27
2023-01-19T12:08:23.909Z,12.57
2023-01-19T12:10:52.928Z,13.95
2023-01-19T12:13:24.963Z,11.80
2023-01-19T12:16:00.127Z,11.63
2023-01-19T12:18:36.932Z,12.27
2023-01-19T12:21:04.295Z,12.77
2023-01-19T12:23:49.932Z,12.05
2023-01-19T12:26:16.405Z,13.77
2023-01-19T12:28:48.395Z,13.98
2023-01-19T12:31:23.585Z,13.18
2023-01-19T12:33:50.983Z,14.68
2023-01-19T12:36:26.533Z,11.45
2023-01-19T12:39:10.327Z,14.25
2023-01-19T12:41:39.110Z,12.65
2023-01-19T12:44:11.452Z,13.63
2023-01-19T12:46:41.268Z,13.00
2023-01-19T12:49:31.058Z,13.88
2023-01-19T12:52:51.240Z,12.75
2023-01-19T12:55:23.237Z,14.02
2023-01-19T12:58:13.696Z,12.93
2023-01-19T13:00:42.829Z,11.90
2023-01-19T13:03:18.230Z,14.23
2023-01-19T13:05:44.738Z,13.90
2023-01-19T13:08:14.073Z,13.13
2023-01-19T13:29:35.615Z,12.40
2023-01-19T13:32:15.947Z,14.05
2023-01-19T13:34:46.779Z,13.18
2023-01-19T13:37:21.651Z,16.08
2023-01-19T13:39:51.553Z,12.65
2023-01-19T13:42:32.980Z,13.02
2023-01-19T13:45:03.997Z,14.48
2023-01-19T13:47:43.719Z,11.57
2023-01-19T13:50:21.691Z,11.73
2023-01-19T13:52:50.791Z,13.88
2023-01-19T13:55:18.607Z,12.98
2023-01-19T13:57:46.543Z,13.77
2023-01-19T14:00:14.335Z,13.50
2023-01-19T14:02:53.582Z,13.38
2023-01-19T14:05:22.036Z,15.13
2023-01-19T14:07:48.884Z,13.20
2023-01-19T14:10:16.803Z,11.52
2023-01-19T14:12:58.541Z,15.10
2023-01-19T14:15:26.157Z,12.98
2023-01-19T14:18:18.129Z,14.38
2023-01-19T14:21:06.208Z,14.07
2023-01-19T14:23:43.677Z,12.88
2023-01-19T14:26:39.096Z,14.77
2023-01-19T14:29:26.467Z,15.25
2023-01-19T14:31:53.436Z,15.32
2023-01-19T14:34:34.782Z,14.77
2023-01-19T14:37:04.053Z,12.63
2023-01-19T14:40:33.433Z,15.10
2023-01-19T14:43:05.670Z,15.82
2023-01-19T14:45:43.051Z,14.40
2023-01-19T14:48:18.186Z,16.00
2023-01-19T14:51:02.102Z,17.02
2023-01-19T14:53:36.592Z,14.57
2023-01-19T14:56:05.116Z,18.73
2023-01-19T14:58:34.662Z,16.05
2023-01-19T15:01:02.371Z,17.40
2023-01-19T15:03:46.030Z,16.60
2023-01-19T15:06:18.717Z,17.35
2023-01-19T15:08:46.115Z,18.38
2023-01-19T15:11:21.980Z,16.95
2023-01-19T15:13:49.422Z,16.45
2023-01-19T15:16:16.302Z,16.50
2023-01-19T15:18:42.885Z,19.42
2023-01-19T15:21:15.387Z,14.60
2023-01-19T15:23:42.053Z,19.38
2023-01-19T15:26:15.805Z,17.20
2023-01-19T15:28:42.844Z,16.30
2023-01-19T15:31:15.107Z,15.77
2023-01-19T15:33:41.909Z,16.80
2023-01-19T15:36:17.925Z,16.52
2023-01-19T15:38:47.541Z,18.88
2023-01-19T15:41:18.151Z,16.42
2023-01-19T15:43:44.668Z,14.82
2023-01-19T15:46:15.549Z,17.95
2023-01-19T15:48:42.493Z,15.45
2023-01-19T15:51:13.750Z,18.73
2023-01-19T15:53:44.075Z,20.00
2023-01-19T15:56:37.077Z,23.65
2023-01-19T15:59:03.784Z,19.80
2023-01-19T16:01:34.683Z,24.33
2023-01-19T16:04:04.090Z,27.73
2023-01-19T16:06:33.901Z,22.02
2023-01-19T16:09:04.288Z,19.45
2023-01-19T16:11:33.274Z,89.28
2023-01-19T16:14:00.451Z,234.68
2023-01-19T16:16:30.183Z,107.28
2023-01-19T16:18:57.041Z,91.22
2023-01-19T16:21:23.889Z,32.97
2023-01-19T16:23:50.724Z,41.08
2023-01-19T16:26:29.381Z,34.22
2023-01-19T16:28:57.884Z,87.18
2023-01-19T16:31:24.974Z,49.85
2023-01-19T16:33:51.558Z,66.80
2023-01-19T16:36:30.098Z,53.13
2023-01-19T16:39:07.008Z,41.28
2023-01-19T16:41:34.939Z,58.05
2023-01-19T16:44:01.920Z,22.38
2023-01-19T16:46:32.537Z,18.67
2023-01-19T16:49:01.980Z,15.13
2023-01-19T16:51:28.865Z,20.52
2023-01-19T16:53:55.484Z,33.63
2023-01-19T16:56:22.058Z,33.50
2023-01-19T16:58:48.730Z,39.85
2023-01-19T17:01:20.163Z,32.60
2023-01-19T17:03:47.647Z,23.90
2023-01-19T17:06:18.433Z,20.33
2023-01-19T17:08:45.403Z,20.35
2023-01-19T17:11:19.452Z,18.83
2023-01-19T17:13:47.456Z,20.42
2023-01-19T17:16:14.152Z,23.15
2023-01-19T17:18:40.901Z,24.40
2023-01-19T17:21:09.803Z,22.33
2023-01-19T17:23:37.495Z,41.42
2023-01-19T17:26:05.051Z,22.63
2023-01-19T17:28:31.609Z,23.63
2023-01-19T17:31:13.652Z,21.08
2023-01-19T17:33:40.526Z,22.92
2023-01-19T17:36:10.370Z,25.10
2023-01-19T17:38:37.323Z,37.67
2023-01-19T17:41:16.174Z,36.28
2023-01-19T17:43:43.316Z,29.90
2023-01-19T17:46:10.754Z,30.25
2023-01-19T17:48:38.213Z,26.73
2023-01-19T17:51:08.347Z,32.70
2023-01-19T17:53:36.960Z,19.67
2023-01-19T17:56:12.449Z,21.50
2023-01-19T17:58:40.208Z,26.95
2023-01-19T22:21:46.366Z,19.83
2023-01-19T22:24:12.938Z,20.02
2023-01-19T22:26:39.497Z,19.38
2023-01-19T22:29:11.176Z,17.75
2023-01-19T22:31:39.172Z,18.05
2023-01-19T22:34:10.179Z,17.65
2023-01-19T22:36:37.786Z,17.98
2023-01-19T22:39:06.947Z,18.92
2023-01-19T22:41:34.620Z,19.95
2023-01-19T22:44:03.616Z,17.98
2023-01-19T22:46:32.757Z,18.50
2023-01-19T22:49:00.170Z,18.15
2023-01-19T22:51:27.908Z,18.17
2023-01-19T22:53:54.481Z,17.08
2023-01-19T22:56:23.455Z,16.05
2023-01-19T22:58:50.336Z,19.70
2023-01-19T23:01:20.405Z,18.30
2023-01-19T23:03:47.351Z,18.30
2023-01-19T23:06:20.343Z,17.17
2023-01-19T23:08:47.292Z,17.67
2023-01-19T23:11:19.388Z,19.27
2023-01-19T23:13:46.343Z,19.30
2023-01-19T23:16:13.822Z,17.75
2023-01-19T23:18:41.603Z,19.40
2023-01-19T23:21:12.745Z,16.40
2023-01-19T23:23:40.202Z,17.13
2023-01-19T23:26:13.887Z,15.93
2023-01-19T23:28:41.167Z,15.15
2023-01-19T23:31:31.736Z,18.90
2023-01-19T23:34:01.382Z,17.45
2023-01-19T23:36:29.945Z,19.27
2023-01-19T23:38:58.486Z,17.58
2023-01-19T23:41:26.500Z,17.83
2023-01-19T23:43:53.030Z,15.82
2023-01-19T23:46:20.381Z,16.63
2023-01-19T23:48:47.445Z,16.20
2023-01-19T23:51:20.892Z,17.67
2023-01-19T23:53:47.993Z,16.02
2023-01-19T23:56:17.459Z,15.95
2023-01-19T23:58:48.516Z,16.10
